IVAO ES Tour IFR-A 2013 Etapa 18

IVAO ES Tour IFR-A 2013 Etapa 18

Palma de Mallorca ( LEPA ) – Sevilla ( LEZL )

Datos generales del vuelo
 Fecha 08-12-2013  Avión  B737-800 winglets
 Ruta BAVER UM603 ALT UN851 MGA UM744 MAR  Nivel de vuelo FL360
 Origen LEPA  Destino LEZL
 Velocidad M0.785  Distancia 476Nm
 Distancia real 424Nm ETE 01:05
 ETA 09:55Z  FOB 02:35
 Hora salida 08:45Z Hora llegada 10:15Z
 Pax 158 TOW 68578Kg
 MTOW  78471Kg Fuel 7440Kg
 Fuel utilizado 4044Kg ZFW 61137Kg
Peso carga 8496Kg Peso pasaje 11228Kg
V1 131Knots Vr 140Knots
 V2 149Knots  Vref 148Knots
 Velocidad vertical toma
246,92 ft/m  

 

Datos LEPA

Metar: LEPA 080800Z 08001KT 9999 FEW034 04/04 Q1027 NOSIG
Pista Activa:  24R
Salida: BAVE1A

Datos LEZL

Metar: LEZL 081000Z 04006KT CAVOK 09/03 Q1027 NOSIG
Pista Activa: 09
Llegada:  MAR2E
App:  ILS Z 09 transición TENDU

 

 

Deja una respuesta